createdAt,value
2024-02-26T00:01:36.311Z,1.57
2024-02-26T00:04:04.194Z,0.70
2024-02-26T00:06:33.618Z,0.77
2024-02-26T00:09:01.814Z,0.95
2024-02-26T00:11:29.534Z,0.82
2024-02-26T00:13:57.152Z,0.50
2024-02-26T00:16:24.877Z,1.15
2024-02-26T00:18:52.676Z,1.08
2024-02-26T00:21:20.447Z,1.13
2024-02-26T00:23:51.107Z,0.93
2024-02-26T00:26:18.774Z,1.07
2024-02-26T00:28:46.380Z,0.60
2024-02-26T00:31:15.596Z,1.85
2024-02-26T00:33:44.423Z,0.50
2024-02-26T00:36:12.102Z,1.13
2024-02-26T00:38:40.615Z,0.63
2024-02-26T00:41:09.595Z,0.80
2024-02-26T00:43:40.172Z,0.70
2024-02-26T00:46:08.073Z,1.60
2024-02-26T00:48:35.833Z,0.60
2024-02-26T00:51:06.192Z,1.17
2024-02-26T00:53:33.943Z,1.42
2024-02-26T00:56:01.520Z,2.25
2024-02-26T00:58:30.547Z,3.15
2024-02-26T01:00:58.287Z,1.85
2024-02-26T01:03:26.119Z,0.90
2024-02-26T01:05:56.708Z,1.70
2024-02-26T01:08:26.399Z,0.90
2024-02-26T01:10:54.090Z,0.80
2024-02-26T01:13:21.861Z,1.00
2024-02-26T01:15:50.882Z,0.57
2024-02-26T01:18:18.728Z,0.90
2024-02-26T01:20:46.370Z,0.60
2024-02-26T01:23:14.696Z,1.23
2024-02-26T01:25:43.818Z,2.15
2024-02-26T01:28:11.405Z,0.83
2024-02-26T01:30:39.140Z,0.60
2024-02-26T01:33:09.126Z,1.92
2024-02-26T01:35:37.103Z,1.00
2024-02-26T01:38:04.846Z,1.33
2024-02-26T01:40:32.554Z,0.93
2024-02-26T01:43:01.258Z,1.05
2024-02-26T01:45:29.553Z,1.42
2024-02-26T01:47:57.910Z,1.10
2024-02-26T01:50:28.209Z,1.33
2024-02-26T01:52:56.865Z,1.70
2024-02-26T01:55:26.227Z,1.08
2024-02-26T01:57:54.977Z,1.15
2024-02-26T02:00:23.611Z,1.25
2024-02-26T02:02:53.598Z,1.90
2024-02-26T02:05:22.932Z,1.05
2024-02-26T02:07:52.456Z,1.80
2024-02-26T02:10:23.793Z,1.63
2024-02-26T02:12:51.685Z,1.77
2024-02-26T02:15:19.836Z,2.07
2024-02-26T02:17:47.954Z,3.53
2024-02-26T02:20:18.704Z,1.52
2024-02-26T02:22:48.298Z,1.98
2024-02-26T02:25:16.121Z,1.70
2024-02-26T02:27:44.951Z,1.10
2024-02-26T02:30:14.346Z,1.00
2024-02-26T02:32:42.714Z,1.00
2024-02-26T02:35:10.575Z,1.98
2024-02-26T02:37:38.666Z,1.30
2024-02-26T02:40:09.112Z,1.40
2024-02-26T02:42:36.699Z,1.98
2024-02-26T02:45:04.551Z,2.10
2024-02-26T02:47:32.223Z,1.05
2024-02-26T02:49:59.874Z,1.23
2024-02-26T02:52:27.489Z,1.40
2024-02-26T02:54:55.100Z,1.58
2024-02-26T02:57:24.483Z,0.63
2024-02-26T02:59:52.269Z,0.98
2024-02-26T03:02:19.910Z,1.42
2024-02-26T03:04:46.806Z,0.93
2024-02-26T03:07:14.656Z,1.15
2024-02-26T03:09:42.316Z,2.95
2024-02-26T03:12:10.734Z,1.85
2024-02-26T03:14:39.719Z,2.50
2024-02-26T03:17:07.779Z,3.53
2024-02-26T03:19:36.340Z,3.15
2024-02-26T03:22:08.782Z,1.52
2024-02-26T03:24:41.672Z,1.05
2024-02-26T03:27:10.769Z,1.73
2024-02-26T03:29:40.160Z,1.23
2024-02-26T03:32:08.509Z,1.45
2024-02-26T03:34:36.503Z,0.70
2024-02-26T03:37:04.466Z,1.27
2024-02-26T03:39:32.276Z,1.90
2024-02-26T03:41:59.913Z,2.10
2024-02-26T03:44:27.538Z,1.00
2024-02-26T03:46:56.694Z,2.45
2024-02-26T03:49:24.560Z,1.23
2024-02-26T03:51:52.347Z,0.67
2024-02-26T03:54:20.055Z,2.35
2024-02-26T03:56:47.868Z,3.40
2024-02-26T03:59:15.716Z,1.98
2024-02-26T04:01:47.559Z,2.72
2024-02-26T04:04:16.644Z,0.90
2024-02-26T04:06:46.811Z,1.05
2024-02-26T04:09:16.298Z,1.75
2024-02-26T04:11:45.035Z,2.50
2024-02-26T04:14:13.501Z,1.37
2024-02-26T04:16:41.222Z,1.77
2024-02-26T04:19:09.006Z,2.63
2024-02-26T04:21:37.992Z,0.90
2024-02-26T04:24:06.284Z,3.00
2024-02-26T04:26:33.916Z,1.77
2024-02-26T04:29:01.497Z,1.20
2024-02-26T04:31:29.096Z,4.72
2024-02-26T04:33:56.999Z,3.95
2024-02-26T04:36:24.824Z,0.80
2024-02-26T04:38:55.632Z,2.37
2024-02-26T04:41:23.558Z,2.10
2024-02-26T04:43:51.229Z,1.17
2024-02-26T04:46:18.835Z,3.17
2024-02-26T04:48:50.867Z,1.90
2024-02-26T04:51:18.659Z,3.22
2024-02-26T04:53:46.324Z,2.78
2024-02-26T04:56:15.482Z,1.67
2024-02-26T04:58:43.122Z,2.13
2024-02-26T05:01:11.937Z,3.40
2024-02-26T05:03:39.884Z,2.35
2024-02-26T05:06:06.979Z,2.65
2024-02-26T05:08:36.786Z,1.48
2024-02-26T05:11:05.084Z,2.80
2024-02-26T05:13:34.083Z,2.73
2024-02-26T05:16:01.702Z,2.50
2024-02-26T05:18:29.723Z,2.20
2024-02-26T05:20:57.547Z,2.92
2024-02-26T05:23:25.199Z,3.63
2024-02-26T05:25:52.898Z,2.65
2024-02-26T05:28:21.752Z,2.10
2024-02-26T05:30:50.833Z,3.97
2024-02-26T05:33:19.226Z,4.38
2024-02-26T05:35:47.096Z,3.40
2024-02-26T05:38:14.782Z,2.38
2024-02-26T05:40:42.484Z,1.95
2024-02-26T05:43:10.184Z,1.85
2024-02-26T05:45:37.828Z,3.10
2024-02-26T05:48:07.665Z,1.67
2024-02-26T05:50:35.343Z,3.10
2024-02-26T05:53:02.934Z,1.58
2024-02-26T05:55:30.920Z,2.42
2024-02-26T05:57:58.549Z,1.17
2024-02-26T06:00:26.183Z,3.08
2024-02-26T06:02:53.915Z,2.13
2024-02-26T06:05:27.544Z,2.67
2024-02-26T06:07:55.319Z,2.27
2024-02-26T06:10:23.206Z,2.65
2024-02-26T06:12:50.816Z,3.80
2024-02-26T06:15:31.993Z,1.65
2024-02-26T06:18:17.014Z,2.53
2024-02-26T06:20:49.808Z,2.37
2024-02-26T06:23:17.921Z,2.50
2024-02-26T06:25:45.579Z,1.95
2024-02-26T06:28:13.234Z,3.22
2024-02-26T06:30:40.840Z,4.07
2024-02-26T06:33:09.010Z,1.88
2024-02-26T06:35:36.639Z,1.75
2024-02-26T06:38:05.980Z,3.88
2024-02-26T06:40:33.622Z,2.13
2024-02-26T06:43:01.331Z,2.05
2024-02-26T06:45:29.188Z,1.88
2024-02-26T06:47:57.651Z,2.45
2024-02-26T06:50:25.444Z,2.10
2024-02-26T06:52:53.050Z,2.15
2024-02-26T06:55:22.081Z,2.63
2024-02-26T06:57:49.912Z,2.58
2024-02-26T07:00:26.541Z,3.47
2024-02-26T07:03:15.549Z,2.17
2024-02-26T07:05:49.425Z,3.78
2024-02-26T07:08:55.109Z,2.78
2024-02-26T07:11:24.152Z,1.30
2024-02-26T07:13:51.934Z,2.73
2024-02-26T07:16:19.528Z,4.15
2024-02-26T07:18:47.341Z,1.38
2024-02-26T07:21:15.049Z,4.20
2024-02-26T07:23:43.244Z,1.92
2024-02-26T07:26:13.131Z,1.40
2024-02-26T07:28:42.142Z,4.68
2024-02-26T07:31:09.814Z,2.05
2024-02-26T07:33:37.499Z,2.75
2024-02-26T07:36:05.915Z,2.47
2024-02-26T07:38:42.226Z,1.77
2024-02-26T07:41:11.578Z,2.00
2024-02-26T07:43:39.359Z,2.08
2024-02-26T07:46:08.327Z,3.33
2024-02-26T07:48:36.210Z,3.35
2024-02-26T07:51:04.394Z,5.55
2024-02-26T07:53:32.402Z,1.30
2024-02-26T07:56:00.042Z,2.80
2024-02-26T07:58:27.729Z,1.38
2024-02-26T08:00:55.421Z,2.85
2024-02-26T08:03:24.537Z,3.15
2024-02-26T08:05:53.465Z,1.60
2024-02-26T08:08:21.286Z,2.27
2024-02-26T08:10:48.964Z,3.75
2024-02-26T08:13:16.689Z,1.77
2024-02-26T08:15:44.284Z,3.28
2024-02-26T08:18:12.159Z,1.77
2024-02-26T08:20:41.171Z,2.00
2024-02-26T08:23:09.278Z,2.65
2024-02-26T08:25:36.027Z,2.38
2024-02-26T08:28:03.887Z,1.45
2024-02-26T08:30:31.621Z,3.00
2024-02-26T08:32:59.336Z,2.17
2024-02-26T08:35:27.039Z,2.30
2024-02-26T08:37:56.016Z,3.15
2024-02-26T08:40:23.918Z,1.70
2024-02-26T08:42:51.494Z,2.15
2024-02-26T08:45:19.400Z,2.33
2024-02-26T08:47:47.438Z,1.48
2024-02-26T08:50:16.239Z,3.72
2024-02-26T08:52:44.087Z,3.10
2024-02-26T08:55:14.522Z,3.50
2024-02-26T08:57:42.254Z,1.95
2024-02-26T09:00:10.873Z,2.88
2024-02-26T09:02:39.678Z,4.03
2024-02-26T09:05:08.221Z,3.20
2024-02-26T09:07:35.943Z,1.50
2024-02-26T09:10:03.664Z,2.30
2024-02-26T09:12:32.701Z,2.28
2024-02-26T09:15:00.446Z,2.90
2024-02-26T09:17:28.286Z,3.47
2024-02-26T09:19:56.083Z,4.03
2024-02-26T09:22:23.814Z,2.55
2024-02-26T09:24:53.374Z,4.18
2024-02-26T09:27:21.197Z,2.17
2024-02-26T09:29:50.180Z,3.53
2024-02-26T09:32:18.822Z,2.17
2024-02-26T09:34:46.554Z,2.00
2024-02-26T09:37:21.260Z,3.85
2024-02-26T09:39:50.194Z,2.83
2024-02-26T09:42:21.120Z,2.83
2024-02-26T09:44:53.780Z,3.03
2024-02-26T09:47:21.956Z,2.97
2024-02-26T09:49:51.248Z,3.72
2024-02-26T09:52:21.354Z,3.93
2024-02-26T09:54:49.730Z,4.50
2024-02-26T09:57:18.750Z,3.65
2024-02-26T09:59:48.600Z,1.63
2024-02-26T10:02:17.952Z,5.60
2024-02-26T10:04:50.305Z,5.90
2024-02-26T10:07:19.516Z,3.72
2024-02-26T10:09:47.304Z,2.65
2024-02-26T10:12:16.669Z,3.42
2024-02-26T10:14:44.629Z,2.80
2024-02-26T10:17:12.647Z,3.23
2024-02-26T10:19:41.806Z,6.00
2024-02-26T10:22:09.483Z,4.72
2024-02-26T10:24:37.291Z,2.85
2024-02-26T10:27:05.723Z,1.92
2024-02-26T10:29:33.952Z,3.17
2024-02-26T10:32:01.617Z,2.70
2024-02-26T10:34:30.570Z,3.17
2024-02-26T10:36:59.739Z,2.80
2024-02-26T10:39:27.802Z,4.05
2024-02-26T10:41:55.606Z,3.07
2024-02-26T10:44:23.285Z,2.70
2024-02-26T10:46:51.521Z,2.65
2024-02-26T10:49:21.964Z,4.40
2024-02-26T10:51:57.857Z,4.43
2024-02-26T10:54:29.709Z,4.30
2024-02-26T10:56:59.767Z,4.47
2024-02-26T10:59:28.354Z,2.40
2024-02-26T11:01:57.077Z,3.72
2024-02-26T11:04:26.343Z,2.42
2024-02-26T11:06:57.501Z,5.93
2024-02-26T11:09:27.586Z,4.03
2024-02-26T11:11:56.769Z,4.07
2024-02-26T11:14:27.188Z,6.78
2024-02-26T11:16:57.773Z,5.50
2024-02-26T11:19:27.455Z,8.33
2024-02-26T11:21:55.160Z,3.42
2024-02-26T11:24:23.150Z,6.82
2024-02-26T11:26:59.718Z,4.50
2024-02-26T11:29:32.126Z,3.70
2024-02-26T11:32:01.853Z,4.28
2024-02-26T11:34:30.516Z,3.28
2024-02-26T11:36:58.637Z,4.32
2024-02-26T11:39:27.884Z,4.43
2024-02-26T11:41:56.953Z,4.83
2024-02-26T11:44:31.412Z,4.03
2024-02-26T11:46:59.793Z,4.97
2024-02-26T11:49:36.754Z,4.43
2024-02-26T11:52:08.183Z,4.60
2024-02-26T11:54:45.868Z,7.27
2024-02-26T11:57:28.997Z,7.90
2024-02-26T11:59:57.717Z,5.90
2024-02-26T12:02:43.005Z,4.10
2024-02-26T12:05:14.679Z,7.88
2024-02-26T12:07:44.346Z,5.80
2024-02-26T12:10:36.424Z,4.65
2024-02-26T12:13:09.458Z,5.28
2024-02-26T12:15:39.829Z,7.57
2024-02-26T12:18:10.914Z,7.00
2024-02-26T12:20:38.681Z,5.90
2024-02-26T12:23:06.944Z,8.10
2024-02-26T12:25:35.475Z,7.60
2024-02-26T12:28:04.087Z,7.55
2024-02-26T12:30:33.375Z,9.07
2024-02-26T12:33:01.851Z,10.77
2024-02-26T12:35:30.232Z,5.60
2024-02-26T12:37:58.061Z,7.85
2024-02-26T12:40:27.380Z,7.97
2024-02-26T12:42:56.148Z,6.88
2024-02-26T12:45:23.987Z,6.00
2024-02-26T12:47:53.048Z,7.95
2024-02-26T12:50:20.766Z,7.88
2024-02-26T12:52:49.938Z,6.70
2024-02-26T12:55:20.539Z,8.97
2024-02-26T12:57:50.212Z,7.88
2024-02-26T13:00:23.018Z,6.72
2024-02-26T13:02:53.096Z,7.53
2024-02-26T13:05:21.779Z,6.65
2024-02-26T13:07:49.679Z,9.60
2024-02-26T13:10:18.720Z,9.35
2024-02-26T13:12:47.460Z,9.20
2024-02-26T13:15:17.643Z,6.25
2024-02-26T13:17:45.617Z,7.25
2024-02-26T13:20:16.273Z,6.43
2024-02-26T13:22:43.935Z,6.30
2024-02-26T13:25:11.576Z,5.47
2024-02-26T13:27:39.279Z,8.02
2024-02-26T13:30:11.166Z,6.90
2024-02-26T13:32:40.018Z,6.90
2024-02-26T13:35:09.521Z,5.47
2024-02-26T13:37:39.499Z,8.38
2024-02-26T13:40:09.586Z,7.45
2024-02-26T13:42:37.639Z,10.35
2024-02-26T13:45:07.574Z,13.20
2024-02-26T13:47:35.454Z,7.03
2024-02-26T13:50:03.578Z,7.38
2024-02-26T13:52:33.018Z,6.18
2024-02-26T13:55:03.222Z,5.80
2024-02-26T13:57:31.208Z,6.37
2024-02-26T13:59:58.862Z,4.85
2024-02-26T14:02:26.957Z,6.50
2024-02-26T14:04:54.686Z,5.47
2024-02-26T14:07:22.549Z,6.93
2024-02-26T14:09:51.492Z,8.10
2024-02-26T14:12:22.058Z,5.35
2024-02-26T14:14:54.183Z,3.97
2024-02-26T14:17:21.904Z,4.70
2024-02-26T14:19:50.975Z,3.63
2024-02-26T14:22:18.774Z,4.57
2024-02-26T14:24:46.388Z,5.63
2024-02-26T14:27:17.016Z,4.60
2024-02-26T14:29:46.145Z,2.83
2024-02-26T14:32:13.874Z,5.28
2024-02-26T14:34:41.686Z,4.47
2024-02-26T14:37:09.524Z,4.85
2024-02-26T14:39:37.189Z,4.75
2024-02-26T14:42:05.280Z,5.40
2024-02-26T14:44:32.967Z,6.13
2024-02-26T14:47:01.998Z,6.37
2024-02-26T14:49:31.940Z,4.15
2024-02-26T14:51:59.808Z,3.97
2024-02-26T14:54:29.658Z,4.40
2024-02-26T14:56:57.392Z,5.18
2024-02-26T14:59:25.040Z,8.83
2024-02-26T15:01:52.804Z,3.70
2024-02-26T15:04:21.883Z,5.70
2024-02-26T15:06:49.567Z,5.45
2024-02-26T15:09:17.307Z,4.30
2024-02-26T15:11:45.289Z,5.37
2024-02-26T15:14:13.063Z,5.57
2024-02-26T15:16:41.620Z,5.93
2024-02-26T15:19:12.829Z,5.47
2024-02-26T15:21:47.068Z,6.10
2024-02-26T15:24:17.425Z,5.83
2024-02-26T15:26:45.647Z,5.40
2024-02-26T15:29:13.817Z,6.97
2024-02-26T15:31:41.395Z,4.90
2024-02-26T15:34:10.892Z,5.13
2024-02-26T15:36:38.647Z,6.07
2024-02-26T15:39:08.577Z,5.28
2024-02-26T15:41:36.270Z,5.47
2024-02-26T15:44:04.038Z,6.65
2024-02-26T15:46:33.122Z,6.47
2024-02-26T15:49:00.999Z,4.20
2024-02-26T15:51:28.819Z,3.92
2024-02-26T15:53:56.586Z,6.63
2024-02-26T15:56:26.116Z,4.78
2024-02-26T15:58:54.646Z,6.00
2024-02-26T16:01:24.878Z,4.97
2024-02-26T16:03:54.866Z,3.67
2024-02-26T16:06:32.033Z,4.40
2024-02-26T16:08:59.828Z,3.17
2024-02-26T16:11:29.163Z,2.65
2024-02-26T16:14:02.561Z,2.70
2024-02-26T16:16:34.471Z,2.83
2024-02-26T16:19:10.685Z,3.38
2024-02-26T16:21:38.707Z,3.08
2024-02-26T16:24:07.097Z,4.40
2024-02-26T16:26:36.153Z,4.63
2024-02-26T16:29:04.288Z,2.75
2024-02-26T16:31:32.327Z,2.08
2024-02-26T16:34:00.183Z,3.47
2024-02-26T16:36:28.077Z,3.22
2024-02-26T16:38:55.747Z,3.37
2024-02-26T16:41:23.889Z,3.47
2024-02-26T16:43:52.895Z,2.15
2024-02-26T16:46:20.935Z,2.30
2024-02-26T16:48:52.005Z,2.78
2024-02-26T16:51:19.878Z,3.67
2024-02-26T16:53:47.572Z,4.93
2024-02-26T16:56:15.725Z,2.55
2024-02-26T16:58:43.391Z,2.17
2024-02-26T17:01:12.645Z,3.03
2024-02-26T17:03:40.681Z,2.07
2024-02-26T17:06:09.828Z,2.42
2024-02-26T17:08:38.290Z,3.17
2024-02-26T17:11:06.814Z,4.90
2024-02-26T17:13:34.913Z,3.78
2024-02-26T17:16:02.519Z,5.03
2024-02-26T17:18:31.632Z,2.95
2024-02-26T17:20:59.785Z,3.00
2024-02-26T17:23:28.075Z,5.07
2024-02-26T17:25:55.678Z,5.15
2024-02-26T17:28:23.319Z,5.53
2024-02-26T17:30:50.932Z,2.35
2024-02-26T17:33:18.898Z,2.90
2024-02-26T17:35:47.922Z,2.33
2024-02-26T17:38:15.584Z,2.03
2024-02-26T17:40:43.329Z,2.10
2024-02-26T17:43:10.995Z,2.15
2024-02-26T17:45:38.734Z,4.85
2024-02-26T17:48:07.630Z,3.30
2024-02-26T17:50:35.364Z,2.60
2024-02-26T17:53:05.879Z,5.03
2024-02-26T17:55:33.476Z,2.05
2024-02-26T17:58:01.068Z,2.53
2024-02-26T18:00:29.806Z,3.17
2024-02-26T18:02:57.547Z,4.17
2024-02-26T18:05:25.233Z,3.05
2024-02-26T18:07:53.337Z,11.02
2024-02-26T18:10:23.623Z,3.25
2024-02-26T18:12:51.360Z,3.07
2024-02-26T18:15:19.006Z,2.33
2024-02-26T18:17:47.845Z,2.42
2024-02-26T18:20:16.015Z,1.90
2024-02-26T18:22:44.096Z,2.25
2024-02-26T18:25:12.565Z,2.00
2024-02-26T18:27:42.089Z,2.15
2024-02-26T18:30:11.115Z,2.78
2024-02-26T18:32:40.970Z,1.95
2024-02-26T18:35:11.349Z,2.22
2024-02-26T18:37:39.140Z,2.55
2024-02-26T18:40:08.586Z,2.63
2024-02-26T18:42:36.595Z,1.50
2024-02-26T18:45:06.171Z,2.42
2024-02-26T18:47:34.001Z,2.10
2024-02-26T18:50:02.625Z,1.73
2024-02-26T18:52:30.936Z,2.25
2024-02-26T18:54:58.656Z,2.10
2024-02-26T18:57:29.212Z,3.75
2024-02-26T18:59:57.014Z,2.20
2024-02-26T19:02:34.485Z,2.03
2024-02-26T19:05:02.164Z,2.78
2024-02-26T19:07:31.776Z,2.35
2024-02-26T19:10:01.778Z,2.95
2024-02-26T19:12:32.281Z,2.90
2024-02-26T19:15:00.095Z,3.55
2024-02-26T19:17:29.256Z,3.58
2024-02-26T19:19:57.048Z,2.30
2024-02-26T19:22:25.202Z,2.63
2024-02-26T19:24:53.154Z,3.13
2024-02-26T19:27:20.816Z,3.65
2024-02-26T19:29:48.564Z,2.35
2024-02-26T19:32:17.066Z,3.83
2024-02-26T19:34:47.266Z,2.78
2024-02-26T19:37:15.021Z,4.50
2024-02-26T19:39:42.697Z,3.60
2024-02-26T19:42:11.822Z,2.80
2024-02-26T19:44:39.794Z,3.83
2024-02-26T19:47:08.060Z,2.90
2024-02-26T19:49:36.119Z,7.47
2024-02-26T19:52:05.617Z,3.97
2024-02-26T19:54:33.398Z,5.10
2024-02-26T19:57:01.142Z,5.03
2024-02-26T19:59:28.841Z,5.28
2024-02-26T20:01:56.414Z,6.53
2024-02-26T20:04:24.169Z,5.50
2024-02-26T20:06:51.892Z,5.78
2024-02-26T20:09:22.779Z,6.90
2024-02-26T20:11:50.614Z,6.00
2024-02-26T20:14:18.359Z,8.63
2024-02-26T20:16:45.994Z,6.15
2024-02-26T20:19:14.222Z,8.60
2024-02-26T20:21:42.119Z,8.40
2024-02-26T20:24:10.213Z,5.90
2024-02-26T20:26:40.075Z,8.07
2024-02-26T20:29:07.847Z,11.25
2024-02-26T20:31:36.710Z,6.18
2024-02-26T20:34:05.991Z,7.90
2024-02-26T20:36:33.843Z,8.83
2024-02-26T20:39:01.584Z,8.75
2024-02-26T20:41:29.374Z,9.55
2024-02-26T20:43:58.722Z,11.68
2024-02-26T20:46:32.570Z,7.30
2024-02-26T20:49:00.382Z,8.53
2024-02-26T20:51:30.200Z,7.40
2024-02-26T20:53:58.505Z,8.15
2024-02-26T20:56:26.144Z,9.65
2024-02-26T20:58:53.838Z,11.60
2024-02-26T21:01:22.788Z,7.77
2024-02-26T21:03:50.983Z,9.50
2024-02-26T21:06:18.692Z,9.23
2024-02-26T21:08:46.409Z,9.80
2024-02-26T21:11:14.060Z,8.73
2024-02-26T21:13:42.448Z,8.93
2024-02-26T21:16:10.390Z,9.02
2024-02-26T21:18:41.191Z,10.90
2024-02-26T21:21:09.715Z,10.32
2024-02-26T21:23:37.180Z,8.87
2024-02-26T21:26:05.169Z,8.07
2024-02-26T21:28:33.009Z,9.30
2024-02-26T21:31:00.611Z,10.27
2024-02-26T21:33:28.591Z,10.85
2024-02-26T21:35:58.729Z,8.47
2024-02-26T21:38:32.518Z,7.82
2024-02-26T21:41:07.370Z,9.80
2024-02-26T21:43:38.067Z,10.68
2024-02-26T21:46:06.349Z,10.13
2024-02-26T21:48:35.344Z,10.00
2024-02-26T21:51:06.384Z,11.10
2024-02-26T21:53:34.104Z,11.80
2024-02-26T21:56:02.347Z,12.43
2024-02-26T21:58:30.075Z,13.35
2024-02-26T22:00:57.778Z,14.57
2024-02-26T22:03:25.715Z,13.57
2024-02-26T22:05:55.047Z,12.57
2024-02-26T22:08:24.279Z,12.38
2024-02-26T22:10:52.228Z,10.77
2024-02-26T22:13:19.960Z,12.77
2024-02-26T22:15:47.681Z,13.30
2024-02-26T22:18:15.562Z,16.10
2024-02-26T22:20:43.233Z,11.95
2024-02-26T22:23:10.841Z,16.73
2024-02-26T22:25:39.888Z,15.87
2024-02-26T22:28:07.703Z,16.70
2024-02-26T22:30:35.448Z,20.08
2024-02-26T22:33:03.307Z,17.85
2024-02-26T22:35:31.017Z,22.50
2024-02-26T22:37:58.647Z,24.43
2024-02-26T22:40:26.284Z,23.45
2024-02-26T22:42:56.709Z,20.58
2024-02-26T22:45:25.485Z,22.98
2024-02-26T22:47:53.368Z,24.98
2024-02-26T22:50:21.086Z,25.00
2024-02-26T22:52:50.801Z,20.13
2024-02-26T22:55:19.357Z,16.55
2024-02-26T22:57:47.043Z,18.50
2024-02-26T23:00:27.312Z,21.92
2024-02-26T23:02:55.196Z,16.20
2024-02-26T23:05:24.510Z,22.10
2024-02-26T23:07:52.363Z,21.35
2024-02-26T23:10:20.107Z,20.45
2024-02-26T23:12:48.094Z,24.17
2024-02-26T23:15:17.154Z,15.87
2024-02-26T23:17:45.032Z,27.35
2024-02-26T23:20:15.150Z,23.02
2024-02-26T23:22:45.213Z,24.65
2024-02-26T23:25:14.635Z,25.33
2024-02-26T23:27:44.081Z,25.45
2024-02-26T23:30:13.045Z,22.98
2024-02-26T23:32:42.777Z,21.83
2024-02-26T23:35:10.856Z,26.80
2024-02-26T23:37:38.780Z,19.85
2024-02-26T23:40:09.843Z,20.65
2024-02-26T23:42:37.881Z,26.25
2024-02-26T23:45:08.489Z,25.67
2024-02-26T23:47:36.320Z,23.87
2024-02-26T23:50:05.974Z,24.67
2024-02-26T23:52:33.617Z,20.30
2024-02-26T23:55:01.332Z,26.15
2024-02-26T23:57:29.127Z,24.13
2024-02-26T23:59:56.949Z,22.03
